Time;durP1;ratioP1;P1;durP2;ratioP2;P2;SDS_P1;SDS_P2;PMS_P1;PMS_P2;Temp;Humidity;BMP_temperature;BMP_pressure;BME280_temperature;BME280_humidity;BME280_pressure;Samples;Min_cycle;Max_cycle;Signal;HPM_P1;HPM_P2
2022/04/23 00:01:42;;;;;;;14.03;7.47;;;8.60;98.60;;;;;;5046981;28;20197;-71
2022/04/23 00:04:13;;;;;;;11.60;7.07;;;8.60;98.30;;;;;;5047357;28;20447;-71
2022/04/23 00:06:39;;;;;;;12.30;7.50;;;8.60;98.30;;;;;;5046364;28;20904;-71
2022/04/23 00:09:05;;;;;;;16.70;8.17;;;8.60;98.60;;;;;;5046604;28;20472;-71
2022/04/23 00:11:32;;;;;;;14.90;7.43;;;8.50;99.00;;;;;;5047030;28;20554;-71
2022/04/23 00:13:59;;;;;;;13.53;8.10;;;8.50;99.40;;;;;;5045910;28;20436;-71
2022/04/23 00:16:25;;;;;;;17.00;7.80;;;8.50;99.60;;;;;;5042612;28;20471;-71
2022/04/23 00:18:53;;;;;;;18.33;8.53;;;8.40;99.70;;;;;;5046445;28;20439;-71
2022/04/23 00:21:19;;;;;;;17.93;7.87;;;8.30;99.90;;;;;;5046519;28;20437;-71
2022/04/23 00:23:47;;;;;;;15.40;7.67;;;8.30;99.90;;;;;;5047039;28;21039;-71
2022/04/23 00:26:13;;;;;;;17.10;7.90;;;8.20;99.50;;;;;;5046959;28;20603;-71
2022/04/23 00:28:38;;;;;;;13.20;7.87;;;8.20;99.30;;;;;;5046619;28;20443;-71
2022/04/23 00:31:05;;;;;;;16.87;7.87;;;8.10;99.80;;;;;;5045076;28;20193;-71
2022/04/23 00:33:37;;;;;;;17.10;7.37;;;8.00;99.60;;;;;;5041113;28;20600;-71
2022/04/23 00:36:09;;;;;;;15.57;8.07;;;8.00;99.90;;;;;;5042953;28;20464;-71
2022/04/23 00:38:40;;;;;;;12.97;7.10;;;8.00;99.90;;;;;;5046493;28;20436;-71
2022/04/23 00:41:06;;;;;;;17.67;9.13;;;7.90;99.90;;;;;;5046468;28;20475;-71
2022/04/23 00:43:35;;;;;;;14.07;8.27;;;7.90;99.90;;;;;;5046238;28;20442;-71
2022/04/23 00:46:03;;;;;;;30.70;8.13;;;7.90;99.90;;;;;;5046472;28;20444;-71
2022/04/23 00:48:29;;;;;;;17.73;8.50;;;7.90;99.90;;;;;;5045602;28;20439;-71
2022/04/23 00:50:57;;;;;;;16.50;8.00;;;7.90;99.90;;;;;;5046218;28;20436;-71
2022/04/23 00:53:24;;;;;;;16.00;8.40;;;7.80;99.90;;;;;;5046371;28;20958;-70
2022/04/23 00:55:53;;;;;;;14.40;8.13;;;7.80;99.90;;;;;;5046213;28;20534;-70
2022/04/23 00:58:20;;;;;;;12.50;7.70;;;7.70;99.90;;;;;;5044634;28;20837;-71
2022/04/23 01:00:46;;;;;;;11.67;7.07;;;7.70;99.90;;;;;;5045280;28;20473;-70
2022/04/23 01:03:13;;;;;;;15.87;7.83;;;7.70;99.90;;;;;;5045635;28;20516;-70
2022/04/23 01:05:46;;;;;;;16.27;7.87;;;7.60;99.90;;;;;;5045775;28;20808;-70
2022/04/23 01:08:15;;;;;;;19.27;9.13;;;7.60;99.90;;;;;;5045479;28;20432;-70
2022/04/23 01:10:42;;;;;;;16.27;9.30;;;7.60;99.90;;;;;;5046306;28;20440;-69
2022/04/23 01:13:08;;;;;;;17.00;10.23;;;7.60;99.90;;;;;;5049933;28;20941;-70
2022/04/23 01:15:34;;;;;;;14.80;7.50;;;7.60;99.90;;;;;;5043968;28;20507;-70
2022/04/23 01:18:00;;;;;;;20.13;9.40;;;7.60;99.90;;;;;;5050148;28;20812;-70
2022/04/23 01:20:26;;;;;;;15.20;7.27;;;7.50;99.90;;;;;;5048912;28;20486;-70
2022/04/23 01:22:51;;;;;;;17.80;8.77;;;7.40;99.90;;;;;;5048101;28;20185;-70
2022/04/23 01:25:17;;;;;;;19.90;8.50;;;7.30;99.90;;;;;;5046909;28;20182;-70
2022/04/23 01:27:45;;;;;;;15.27;7.47;;;7.30;99.90;;;;;;5049304;28;20715;-70
2022/04/23 01:30:11;;;;;;;14.83;8.43;;;7.10;99.90;;;;;;5048864;28;20717;-70
2022/04/23 01:32:38;;;;;;;20.57;8.50;;;7.10;99.90;;;;;;5049351;28;20501;-70
2022/04/23 01:35:04;;;;;;;19.43;8.90;;;7.00;99.90;;;;;;5046675;28;20928;-70
2022/04/23 01:37:30;;;;;;;19.23;8.57;;;7.00;99.90;;;;;;5042394;28;20478;-70
2022/04/23 01:39:56;;;;;;;17.57;8.87;;;6.90;99.90;;;;;;5048904;28;20440;-70
2022/04/23 01:42:21;;;;;;;15.57;7.80;;;6.90;99.90;;;;;;5048085;28;20193;-69
2022/04/23 01:44:49;;;;;;;17.27;8.30;;;6.80;99.90;;;;;;5048874;28;20666;-70
2022/04/23 01:47:15;;;;;;;18.10;7.40;;;6.80;99.90;;;;;;5049524;28;20244;-70
2022/04/23 01:49:42;;;;;;;16.30;7.33;;;6.70;99.90;;;;;;5048730;28;20432;-70
2022/04/23 01:52:08;;;;;;;14.63;8.20;;;6.70;99.90;;;;;;5048799;28;20958;-70
2022/04/23 01:54:34;;;;;;;18.70;8.60;;;6.70;99.90;;;;;;5048481;28;20519;-70
2022/04/23 01:57:00;;;;;;;14.03;7.83;;;6.60;99.90;;;;;;5048914;28;20902;-70
2022/04/23 01:59:26;;;;;;;14.53;7.83;;;6.70;99.90;;;;;;5047973;28;20432;-70
2022/04/23 02:01:52;;;;;;;16.87;8.47;;;6.60;99.90;;;;;;5049037;28;20427;-70
2022/04/23 02:04:19;;;;;;;20.53;8.67;;;6.60;99.90;;;;;;5048647;28;20436;-70
2022/04/23 02:06:45;;;;;;;14.97;8.57;;;6.50;99.90;;;;;;5047769;28;20527;-70
2022/04/23 02:09:11;;;;;;;16.10;8.17;;;6.50;99.90;;;;;;5048421;28;20999;-70
2022/04/23 02:11:38;;;;;;;18.70;9.00;;;6.40;99.90;;;;;;5044445;28;20462;-70
2022/04/23 02:14:03;;;;;;;27.83;8.90;;;6.40;99.90;;;;;;5049277;28;20460;-70
2022/04/23 02:16:30;;;;;;;18.57;9.13;;;6.40;99.90;;;;;;5053751;28;20533;-70
2022/04/23 02:18:58;;;;;;;20.63;8.73;;;6.40;99.90;;;;;;5048361;28;20200;-70
2022/04/23 02:21:25;;;;;;;18.13;9.10;;;6.40;99.90;;;;;;5052103;28;20428;-70
2022/04/23 02:23:53;;;;;;;17.03;9.20;;;6.30;99.90;;;;;;5051750;28;20482;-70
2022/04/23 02:26:20;;;;;;;20.00;8.60;;;6.30;99.90;;;;;;5056302;28;20437;-70
2022/04/23 02:28:49;;;;;;;16.90;9.73;;;6.30;99.90;;;;;;5050528;28;20427;-70
2022/04/23 02:31:15;;;;;;;18.17;8.60;;;6.30;99.90;;;;;;5058479;28;20447;-70
2022/04/23 02:33:40;;;;;;;16.40;8.93;;;6.20;99.90;;;;;;5053813;28;20431;-70
2022/04/23 02:36:07;;;;;;;17.50;8.77;;;6.20;99.90;;;;;;5054123;28;20526;-70
2022/04/23 02:38:40;;;;;;;17.30;8.40;;;6.20;99.90;;;;;;5048419;28;20205;-70
2022/04/23 02:41:09;;;;;;;18.27;9.70;;;6.20;99.90;;;;;;5048537;28;20451;-70
2022/04/23 02:43:36;;;;;;;13.20;6.90;;;6.10;99.90;;;;;;5048346;28;20427;-70
2022/04/23 02:46:05;;;;;;;15.90;7.60;;;6.10;99.90;;;;;;5048902;28;20432;-70
2022/04/23 02:48:31;;;;;;;13.63;7.43;;;6.10;99.90;;;;;;5048964;28;20475;-70
2022/04/23 02:50:57;;;;;;;12.47;7.87;;;6.00;99.90;;;;;;5047990;28;21313;-70
2022/04/23 02:53:23;;;;;;;15.27;8.30;;;6.00;99.90;;;;;;5042966;28;20185;-70
2022/04/23 02:55:49;;;;;;;16.87;8.23;;;6.00;99.90;;;;;;5049179;28;20475;-70
2022/04/23 02:58:14;;;;;;;13.47;7.73;;;6.00;99.90;;;;;;5049279;28;20610;-70
2022/04/23 03:00:42;;;;;;;14.43;8.87;;;6.00;99.90;;;;;;5051597;28;20190;-70
2022/04/23 03:03:08;;;;;;;14.17;7.43;;;6.00;99.90;;;;;;5057907;28;20185;-70
2022/04/23 03:05:35;;;;;;;18.87;8.37;;;6.00;99.90;;;;;;5055912;28;20889;-70
2022/04/23 03:08:00;;;;;;;15.80;7.50;;;5.90;99.90;;;;;;5047983;28;20454;-70
2022/04/23 03:10:29;;;;;;;16.20;9.13;;;5.90;99.90;;;;;;5047364;28;20724;-70
2022/04/23 03:12:57;;;;;;;14.57;7.87;;;5.90;99.90;;;;;;5048216;28;20508;-70
2022/04/23 03:15:24;;;;;;;17.30;7.67;;;5.90;99.90;;;;;;5047595;28;20494;-70
2022/04/23 03:17:50;;;;;;;14.37;8.20;;;5.80;99.90;;;;;;5049649;28;20523;-70
2022/04/23 03:20:16;;;;;;;15.10;7.80;;;5.80;99.90;;;;;;5048332;28;20931;-70
2022/04/23 03:22:42;;;;;;;20.43;8.30;;;6.00;99.90;;;;;;5051394;28;20185;-69
2022/04/23 03:25:10;;;;;;;17.90;9.07;;;5.80;99.90;;;;;;5054341;28;20185;-70
2022/04/23 03:27:35;;;;;;;17.13;7.97;;;5.70;99.90;;;;;;5048065;28;20444;-70
2022/04/23 03:30:02;;;;;;;16.37;8.53;;;5.80;99.90;;;;;;5047420;28;20432;-70
2022/04/23 03:32:28;;;;;;;17.27;8.37;;;5.70;99.90;;;;;;5049524;28;20444;-70
2022/04/23 03:34:54;;;;;;;19.20;8.90;;;5.70;99.90;;;;;;5049236;28;21020;-70
2022/04/23 03:37:21;;;;;;;17.47;9.30;;;5.60;99.90;;;;;;5053517;28;20245;-70
2022/04/23 03:39:47;;;;;;;17.40;7.67;;;5.60;99.90;;;;;;5046649;28;20447;-70
2022/04/23 03:42:13;;;;;;;21.87;9.43;;;5.50;99.90;;;;;;5047956;28;20416;-70
2022/04/23 03:44:38;;;;;;;18.93;9.27;;;5.50;99.90;;;;;;5052817;28;20209;-70
2022/04/23 03:47:04;;;;;;;16.00;7.50;;;5.40;99.90;;;;;;5054123;28;20185;-70
2022/04/23 03:49:30;;;;;;;17.50;9.00;;;5.30;99.90;;;;;;5050540;28;20749;-70
2022/04/23 03:51:57;;;;;;;17.20;8.50;;;5.30;99.90;;;;;;5048431;28;20198;-69
2022/04/23 03:54:23;;;;;;;16.23;7.43;;;5.20;99.90;;;;;;5050517;28;20852;-72
2022/04/23 03:56:49;;;;;;;17.43;9.20;;;5.30;99.90;;;;;;5047530;28;20468;-70
2022/04/23 03:59:15;;;;;;;15.10;8.90;;;5.30;99.90;;;;;;5043348;28;21214;-70
2022/04/23 04:01:41;;;;;;;18.70;7.70;;;5.30;99.90;;;;;;5046540;28;20186;-69
2022/04/23 04:04:07;;;;;;;18.53;8.90;;;5.20;99.90;;;;;;5054259;28;20189;-70
2022/04/23 04:06:33;;;;;;;21.27;9.47;;;5.20;99.90;;;;;;5050791;28;20432;-70
2022/04/23 04:08:59;;;;;;;20.90;9.20;;;5.10;99.90;;;;;;5056687;28;20262;-69
2022/04/23 04:11:24;;;;;;;16.17;9.03;;;5.00;99.90;;;;;;5045722;28;20432;-69
2022/04/23 04:13:50;;;;;;;20.87;8.90;;;5.00;99.90;;;;;;5046612;28;20296;-70
2022/04/23 04:16:22;;;;;;;19.20;9.07;;;5.10;99.90;;;;;;5046108;28;20210;-70
2022/04/23 04:18:48;;;;;;;25.73;10.63;;;5.10;99.90;;;;;;5050689;28;20188;-70
2022/04/23 04:21:15;;;;;;;26.97;9.47;;;5.00;99.90;;;;;;5052172;28;20440;-70
2022/04/23 04:23:40;;;;;;;21.37;10.00;;;5.00;99.90;;;;;;5049668;28;20192;-70
2022/04/23 04:26:07;;;;;;;28.00;9.30;;;5.10;99.90;;;;;;5048110;28;20428;-70
2022/04/23 04:28:34;;;;;;;24.40;11.50;;;5.10;99.90;;;;;;5045860;28;20200;-70
2022/04/23 04:33:44;;;;;;;16.87;9.27;;;5.20;99.90;;;;;;5046703;28;20575;-70
2022/04/23 04:36:10;;;;;;;25.80;10.13;;;5.10;99.90;;;;;;5048704;28;20471;-69
2022/04/23 04:38:35;;;;;;;21.77;9.83;;;5.10;99.90;;;;;;5052028;28;20252;-70
2022/04/23 04:41:01;;;;;;;22.63;12.00;;;5.10;99.90;;;;;;5053536;28;20185;-70
2022/04/23 04:43:27;;;;;;;40.60;12.83;;;5.10;99.90;;;;;;5052653;28;20213;-70
2022/04/23 04:45:52;;;;;;;26.27;12.90;;;5.10;99.90;;;;;;5047477;28;20677;-70
2022/04/23 04:48:18;;;;;;;31.03;11.00;;;5.10;99.90;;;;;;5051203;28;20220;-70
2022/04/23 04:50:44;;;;;;;26.87;11.90;;;5.20;99.90;;;;;;5048430;28;20269;-69
2022/04/23 04:53:09;;;;;;;35.30;11.73;;;5.20;99.90;;;;;;5053153;28;20203;-70
2022/04/23 04:55:36;;;;;;;25.80;10.90;;;5.30;99.90;;;;;;5054277;28;20458;-70
2022/04/23 04:58:03;;;;;;;21.13;10.47;;;5.30;99.90;;;;;;5061685;28;20170;-70
2022/04/23 05:00:29;;;;;;;17.40;10.00;;;5.40;99.90;;;;;;5059326;28;20854;-69
2022/04/23 05:02:55;;;;;;;16.20;9.90;;;5.40;99.90;;;;;;5065358;28;20548;-69
2022/04/23 05:05:21;;;;;;;20.53;10.10;;;5.50;99.90;;;;;;5055542;28;20927;-70
2022/04/23 05:07:46;;;;;;;19.13;9.23;;;5.50;99.90;;;;;;5059519;28;20188;-70
2022/04/23 05:10:12;;;;;;;20.33;10.60;;;5.60;99.90;;;;;;5057262;28;20221;-70
2022/04/23 05:12:38;;;;;;;17.70;9.47;;;5.60;99.90;;;;;;5057483;28;20602;-69
2022/04/23 05:15:04;;;;;;;22.37;10.33;;;5.70;99.90;;;;;;5056872;28;20193;-70
2022/04/23 05:17:30;;;;;;;28.83;11.70;;;5.80;99.90;;;;;;5063947;28;20261;-69
2022/04/23 05:19:55;;;;;;;23.57;11.50;;;6.00;99.90;;;;;;5060930;28;20456;-70
2022/04/23 05:22:21;;;;;;;20.50;10.90;;;6.20;99.90;;;;;;5062178;28;20339;-69
2022/04/23 05:24:47;;;;;;;20.83;11.47;;;6.30;99.90;;;;;;5066117;28;20888;-69
2022/04/23 05:27:12;;;;;;;25.63;11.13;;;6.40;99.90;;;;;;5066458;28;20257;-70
2022/04/23 05:29:38;;;;;;;20.90;11.93;;;6.60;99.90;;;;;;5066441;28;20288;-70
2022/04/23 05:32:04;;;;;;;20.83;11.30;;;6.70;99.90;;;;;;5058983;28;20174;-71
2022/04/23 05:34:29;;;;;;;22.13;12.07;;;6.80;99.90;;;;;;5058392;28;20178;-70
2022/04/23 05:36:55;;;;;;;23.43;12.90;;;6.90;99.90;;;;;;5057828;28;20463;-70
2022/04/23 05:39:20;;;;;;;21.87;11.23;;;6.90;99.90;;;;;;5057715;28;20185;-70
2022/04/23 05:41:46;;;;;;;22.03;11.87;;;7.00;99.90;;;;;;5056678;28;20198;-70
2022/04/23 05:44:12;;;;;;;23.27;11.33;;;7.10;99.90;;;;;;5062142;28;20178;-70
2022/04/23 05:46:37;;;;;;;28.87;13.70;;;7.30;99.90;;;;;;5058777;28;20431;-70
2022/04/23 05:49:03;;;;;;;22.20;11.57;;;7.40;99.90;;;;;;5058900;28;20200;-70
2022/04/23 05:51:29;;;;;;;20.43;11.30;;;7.50;99.90;;;;;;5059667;28;20236;-70
2022/04/23 05:53:54;;;;;;;21.77;11.73;;;7.50;99.90;;;;;;5056216;28;20220;-70
2022/04/23 05:56:20;;;;;;;17.97;9.80;;;7.60;99.90;;;;;;5057707;28;20678;-70
2022/04/23 05:58:46;;;;;;;16.10;9.90;;;7.60;99.90;;;;;;5049396;28;20196;-71
2022/04/23 06:01:12;;;;;;;20.53;11.23;;;7.70;99.90;;;;;;5054585;28;20174;-70
2022/04/23 06:03:38;;;;;;;18.10;9.80;;;7.80;99.90;;;;;;5056386;28;20440;-70
2022/04/23 06:06:04;;;;;;;18.90;9.87;;;7.80;99.90;;;;;;5049282;28;20251;-70
2022/04/23 06:08:29;;;;;;;17.80;9.20;;;7.90;99.90;;;;;;5060799;28;20254;-71
2022/04/23 06:10:55;;;;;;;23.77;11.23;;;8.00;99.90;;;;;;5058826;28;20432;-70
2022/04/23 06:13:21;;;;;;;17.97;9.87;;;8.00;99.90;;;;;;5055373;28;20190;-71
2022/04/23 06:15:46;;;;;;;21.67;10.47;;;8.10;99.90;;;;;;5052657;28;20300;-70
2022/04/23 06:18:12;;;;;;;22.43;10.83;;;8.20;99.90;;;;;;5050129;28;20553;-70
2022/04/23 06:20:37;;;;;;;21.13;9.73;;;8.30;99.90;;;;;;5059912;28;20233;-70
2022/04/23 06:23:04;;;;;;;24.87;10.20;;;8.30;99.90;;;;;;5056095;28;20552;-71
2022/04/23 06:25:31;;;;;;;21.37;9.50;;;8.30;99.90;;;;;;5044016;28;20529;-71
2022/04/23 06:27:57;;;;;;;16.07;9.70;;;8.40;99.90;;;;;;5056434;28;20428;-70
2022/04/23 06:30:23;;;;;;;19.90;9.27;;;8.50;99.90;;;;;;5053980;28;20423;-71
2022/04/23 06:32:48;;;;;;;19.10;9.90;;;8.60;99.90;;;;;;5053456;28;20186;-70
2022/04/23 06:35:14;;;;;;;19.23;9.43;;;8.60;99.90;;;;;;5052115;28;20224;-70
2022/04/23 06:37:41;;;;;;;16.80;9.03;;;8.70;99.90;;;;;;5047611;28;20275;-71
2022/04/23 06:40:08;;;;;;;12.80;7.67;;;8.80;99.90;;;;;;5048265;28;20186;-71
2022/04/23 06:42:34;;;;;;;19.27;8.60;;;9.00;99.90;;;;;;5052669;28;20428;-71
2022/04/23 06:44:59;;;;;;;16.60;8.50;;;9.10;99.90;;;;;;5050035;28;20786;-69
2022/04/23 06:47:25;;;;;;;18.27;9.57;;;9.10;99.90;;;;;;5051403;28;20196;-71
2022/04/23 06:49:51;;;;;;;15.83;8.87;;;8.90;99.90;;;;;;5047829;28;20189;-69
2022/04/23 06:52:16;;;;;;;19.37;9.00;;;8.90;99.90;;;;;;5051667;28;20203;-69
2022/04/23 06:54:42;;;;;;;15.30;7.60;;;9.00;99.90;;;;;;5058104;28;20767;-70
2022/04/23 06:57:07;;;;;;;14.23;8.00;;;9.10;99.90;;;;;;5050529;28;20208;-70
2022/04/23 06:59:33;;;;;;;17.70;8.43;;;9.10;99.90;;;;;;5047727;28;20189;-69
2022/04/23 07:02:02;;;;;;;22.53;8.97;;;9.10;99.90;;;;;;5051140;28;20187;-68
2022/04/23 07:04:29;;;;;;;13.60;7.60;;;9.10;99.90;;;;;;5052239;28;20538;-69
2022/04/23 07:06:55;;;;;;;14.63;7.70;;;9.10;99.90;;;;;;5049888;28;20435;-69
2022/04/23 07:09:21;;;;;;;15.40;8.73;;;9.20;99.90;;;;;;5049178;28;20423;-69
2022/04/23 07:11:47;;;;;;;12.20;6.80;;;9.30;99.90;;;;;;5053129;28;20196;-68
2022/04/23 07:14:13;;;;;;;10.57;5.97;;;9.20;99.90;;;;;;5050250;28;20189;-69
2022/04/23 07:16:40;;;;;;;15.60;7.50;;;9.30;99.90;;;;;;5057156;28;20471;-69
2022/04/23 07:19:07;;;;;;;12.87;6.93;;;9.30;99.90;;;;;;5050784;28;20202;-68
2022/04/23 07:21:34;;;;;;;13.10;7.50;;;9.10;99.90;;;;;;5058453;28;20588;-69
2022/04/23 07:24:03;;;;;;;14.73;7.30;;;9.10;99.90;;;;;;5059076;28;20431;-69
2022/04/23 07:26:29;;;;;;;13.27;5.70;;;9.10;99.90;;;;;;5057456;28;20420;-69
2022/04/23 07:28:55;;;;;;;10.80;5.90;;;9.10;99.90;;;;;;5049409;28;20431;-68
2022/04/23 07:31:21;;;;;;;12.57;6.30;;;9.30;99.90;;;;;;5054876;28;20487;-69
2022/04/23 07:39:15;;;;;;;9.57;5.67;;;9.60;99.90;;;;;;5048613;28;20428;-69
2022/04/23 07:41:40;;;;;;;12.33;5.97;;;9.70;99.90;;;;;;5049081;28;20416;-69
2022/04/23 07:44:06;;;;;;;11.37;6.20;;;9.90;99.90;;;;;;5049502;28;20248;-69
2022/04/23 07:46:32;;;;;;;10.00;5.23;;;9.90;99.90;;;;;;5054816;28;20184;-70
2022/04/23 07:48:58;;;;;;;11.93;5.90;;;9.90;99.90;;;;;;5050217;28;20424;-70
2022/04/23 07:51:27;;;;;;;9.23;5.80;;;10.00;99.90;;;;;;5050090;28;20201;-68
2022/04/23 07:53:54;;;;;;;7.97;4.33;;;10.20;99.90;;;;;;5052077;28;20431;-68
2022/04/23 07:56:20;;;;;;;8.10;5.07;;;10.30;99.90;;;;;;5052108;28;20475;-68
2022/04/23 07:58:46;;;;;;;10.93;5.93;;;10.10;99.90;;;;;;5051609;28;20797;-68
2022/04/23 08:01:12;;;;;;;9.60;4.93;;;10.20;99.90;;;;;;5047200;28;20184;-68
2022/04/23 08:03:37;;;;;;;11.57;6.50;;;10.30;99.90;;;;;;5039041;28;20187;-68
2022/04/23 08:06:03;;;;;;;12.33;5.90;;;10.30;99.90;;;;;;5041280;28;20197;-68
2022/04/23 08:08:29;;;;;;;8.30;4.77;;;10.50;99.90;;;;;;5047104;28;20568;-68
2022/04/23 08:10:55;;;;;;;9.80;4.67;;;10.50;99.90;;;;;;5049448;28;20458;-68
2022/04/23 08:13:20;;;;;;;5.87;4.07;;;10.60;99.90;;;;;;5047959;28;20196;-69
2022/04/23 08:15:46;;;;;;;9.53;4.60;;;10.50;99.90;;;;;;5054062;28;20293;-69
2022/04/23 08:18:13;;;;;;;7.73;4.63;;;10.50;99.90;;;;;;5049317;28;20544;-68
2022/04/23 08:20:42;;;;;;;12.67;4.50;;;10.50;99.90;;;;;;5043440;28;20174;-68
2022/04/23 08:23:08;;;;;;;10.57;4.53;;;10.60;99.90;;;;;;5045388;28;20486;-68
2022/04/23 08:25:34;;;;;;;8.27;5.07;;;10.70;99.90;;;;;;5047178;28;20431;-68
2022/04/23 08:30:34;;;;;;;7.40;4.23;;;10.80;99.90;;;;;;5046564;28;20434;-68
2022/04/23 08:30:46;;;;;;;7.90;4.47;;;10.90;99.70;;;;;;5048021;28;20190;-67
2022/04/23 08:33:11;;;;;;;9.30;4.90;;;11.10;99.50;;;;;;5051996;28;20431;-66
2022/04/23 08:35:38;;;;;;;8.10;4.00;;;11.30;99.10;;;;;;5045629;28;20428;-67
2022/04/23 08:38:05;;;;;;;7.87;5.03;;;11.50;98.70;;;;;;5048602;28;20201;-67
2022/04/23 08:40:40;;;;;;;10.67;5.23;;;11.60;98.30;;;;;;5047984;28;20432;-68
2022/04/23 08:43:06;;;;;;;8.53;4.50;;;11.40;98.10;;;;;;5049562;28;20469;-68
2022/04/23 08:45:35;;;;;;;7.97;4.20;;;11.70;97.70;;;;;;5048971;28;20432;-68
2022/04/23 08:48:06;;;;;;;7.97;4.20;;;12.20;97.20;;;;;;5049881;28;20200;-68
2022/04/23 08:50:35;;;;;;;8.10;4.80;;;12.00;96.80;;;;;;5043617;28;20440;-68
2022/04/23 08:53:02;;;;;;;8.10;4.77;;;12.10;96.80;;;;;;5050752;28;20531;-69
2022/04/23 08:55:28;;;;;;;6.50;4.00;;;11.90;97.00;;;;;;5047936;28;21033;-69
2022/04/23 08:57:54;;;;;;;7.97;4.17;;;11.90;97.10;;;;;;5051880;28;20805;-69
2022/04/23 09:00:20;;;;;;;10.50;5.37;;;11.80;96.90;;;;;;5049439;28;20781;-69
2022/04/23 09:02:46;;;;;;;8.40;4.70;;;12.10;97.20;;;;;;5047386;28;20427;-69
2022/04/23 09:05:13;;;;;;;9.70;4.40;;;12.50;96.00;;;;;;5053385;28;20177;-69
2022/04/23 09:07:39;;;;;;;8.37;4.53;;;12.70;95.60;;;;;;5053717;28;20431;-69
2022/04/23 09:10:06;;;;;;;6.73;4.50;;;12.70;95.10;;;;;;5051192;28;20445;-70
2022/04/23 09:12:32;;;;;;;8.83;5.07;;;12.80;94.70;;;;;;5051965;28;20440;-70
2022/04/23 09:23:39;;;;;;;14.20;6.03;;;12.60;95.00;;;;;;5051675;28;20447;-70
2022/04/23 09:23:43;;;;;;;8.50;4.90;;;12.60;95.10;;;;;;5044590;28;20407;-68
2022/04/23 09:26:16;;;;;;;13.47;5.13;;;12.70;94.40;;;;;;5052123;28;20424;-68
2022/04/23 09:28:47;;;;;;;9.67;5.17;;;12.70;94.30;;;;;;5054224;28;20416;-69
2022/04/23 09:31:15;;;;;;;7.17;4.70;;;12.80;94.30;;;;;;5049256;28;20443;-69
2022/04/23 09:33:52;;;;;;;12.37;5.83;;;12.70;94.70;;;;;;5060142;28;20489;-69
2022/04/23 09:36:19;;;;;;;8.73;4.97;;;12.60;94.40;;;;;;5056874;28;20549;-69
2022/04/23 09:39:03;;;;;;;9.60;5.30;;;12.60;94.30;;;;;;5045884;28;20428;-69
2022/04/23 09:41:35;;;;;;;11.50;6.17;;;12.70;93.90;;;;;;5052343;28;20427;-69
2022/04/23 09:44:07;;;;;;;7.40;4.67;;;12.60;94.40;;;;;;5054334;28;20463;-70
2022/04/23 09:46:48;;;;;;;9.70;6.00;;;12.60;94.00;;;;;;5054580;28;20411;-70
2022/04/23 09:49:21;;;;;;;10.67;6.07;;;12.70;94.20;;;;;;5051849;28;20526;-69
2022/04/23 09:52:25;;;;;;;9.00;5.23;;;12.70;94.00;;;;;;5050411;28;20475;-69
2022/04/23 09:54:53;;;;;;;11.23;6.33;;;12.70;93.90;;;;;;5028816;28;20523;-69
2022/04/23 09:57:20;;;;;;;11.33;4.67;;;12.60;93.80;;;;;;5060503;28;20513;-69
2022/04/23 09:59:45;;;;;;;9.33;5.37;;;12.60;94.00;;;;;;5053527;28;20417;-69
2022/04/23 10:02:19;;;;;;;10.00;5.10;;;12.20;94.70;;;;;;5051954;28;20514;-70
2022/04/23 10:04:46;;;;;;;10.37;5.23;;;12.40;94.10;;;;;;5050540;28;20201;-70
2022/04/23 10:07:13;;;;;;;11.87;5.93;;;12.20;94.40;;;;;;5051102;28;20481;-69
2022/04/23 10:09:41;;;;;;;17.60;5.70;;;12.50;94.20;;;;;;5052981;28;20446;-69
2022/04/23 10:12:09;;;;;;;10.30;5.60;;;12.50;94.10;;;;;;5064990;28;20446;-69
2022/04/23 10:14:59;;;;;;;10.40;5.50;;;12.50;94.00;;;;;;5054434;28;20457;-69
2022/04/23 10:17:27;;;;;;;12.40;5.30;;;12.50;93.90;;;;;;5042275;28;20502;-70
2022/04/23 10:19:54;;;;;;;8.70;6.17;;;12.60;94.00;;;;;;5049335;28;20456;-69
2022/04/23 10:22:21;;;;;;;11.20;5.53;;;12.50;93.80;;;;;;5053642;28;21524;-70
2022/04/23 10:25:01;;;;;;;9.00;4.93;;;12.60;93.60;;;;;;5048508;28;20551;-70
2022/04/23 10:27:28;;;;;;;14.30;5.90;;;12.50;93.60;;;;;;5050883;28;20760;-70
2022/04/23 10:30:02;;;;;;;8.07;4.53;;;12.30;94.10;;;;;;5048757;28;20478;-69
2022/04/23 10:32:40;;;;;;;32.07;6.90;;;12.20;94.60;;;;;;5054524;28;20498;-70
2022/04/23 10:35:18;;;;;;;11.40;5.00;;;12.50;94.20;;;;;;5059468;28;20423;-70
2022/04/23 10:37:45;;;;;;;10.73;6.07;;;12.70;94.00;;;;;;5055869;28;20784;-70
2022/04/23 10:40:11;;;;;;;12.80;6.20;;;12.70;93.60;;;;;;5053583;28;20523;-69
2022/04/23 10:42:38;;;;;;;8.73;5.60;;;12.80;93.50;;;;;;5057371;28;21265;-70
2022/04/23 10:45:06;;;;;;;9.17;4.80;;;12.60;94.20;;;;;;5047243;28;20291;-69
2022/04/23 10:47:34;;;;;;;10.90;5.30;;;12.50;93.70;;;;;;5048768;28;20436;-70
2022/04/23 10:50:23;;;;;;;7.27;4.17;;;12.60;94.00;;;;;;5053199;28;20924;-71
2022/04/23 10:52:50;;;;;;;11.13;5.10;;;12.80;93.50;;;;;;5051491;28;20411;-69
2022/04/23 10:55:16;;;;;;;8.10;4.50;;;12.90;93.10;;;;;;5048546;28;20816;-67
2022/04/23 10:57:55;;;;;;;9.47;5.30;;;12.70;93.20;;;;;;5060025;28;20472;-69
2022/04/23 11:00:22;;;;;;;10.87;5.53;;;12.70;93.80;;;;;;5053532;28;20430;-69
2022/04/23 11:02:56;;;;;;;9.40;4.63;;;12.80;93.40;;;;;;5056204;28;20459;-70
2022/04/23 11:13:49;;;;;;;15.73;5.07;;;13.00;93.10;;;;;;5055665;28;20471;-70
2022/04/23 11:16:17;;;;;;;12.03;5.53;;;13.20;92.90;;;;;;5055636;28;20470;-69
2022/04/23 11:18:45;;;;;;;11.20;5.13;;;13.20;92.90;;;;;;5048773;28;20439;-70
2022/04/23 11:21:17;;;;;;;11.27;5.97;;;13.30;92.70;;;;;;5053305;28;20582;-69
2022/04/23 11:23:45;;;;;;;12.00;5.43;;;13.10;93.20;;;;;;5057072;28;20428;-70
2022/04/23 11:26:19;;;;;;;7.73;4.43;;;13.40;92.40;;;;;;5049638;28;20435;-70
2022/04/23 11:28:57;;;;;;;9.70;4.53;;;13.40;92.40;;;;;;5045383;28;20467;-69
2022/04/23 11:31:23;;;;;;;8.73;5.27;;;13.50;92.40;;;;;;5049729;28;20458;-70
2022/04/23 11:33:56;;;;;;;10.83;5.33;;;13.50;92.50;;;;;;5055795;28;20903;-69
2022/04/23 11:36:33;;;;;;;11.13;5.57;;;13.80;92.10;;;;;;5054462;28;20692;-70
2022/04/23 11:39:03;;;;;;;13.03;5.97;;;13.80;91.70;;;;;;5050851;28;20933;-69
2022/04/23 11:41:38;;;;;;;16.77;6.77;;;13.60;91.80;;;;;;5056037;28;20446;-69
2022/04/23 11:44:15;;;;;;;7.83;4.53;;;13.50;92.30;;;;;;5049392;28;20412;-69
2022/04/23 11:46:45;;;;;;;9.43;4.80;;;13.70;92.20;;;;;;5049175;28;20433;-69
2022/04/23 11:49:32;;;;;;;10.50;5.27;;;13.80;92.10;;;;;;5041761;28;21209;-71
2022/04/23 11:52:05;;;;;;;11.00;5.53;;;13.80;92.10;;;;;;5047494;28;20435;-67
2022/04/23 11:54:44;;;;;;;10.17;5.37;;;13.80;91.80;;;;;;5051147;28;20431;-67
2022/04/23 11:57:15;;;;;;;8.80;4.60;;;13.70;91.50;;;;;;5052554;28;20617;-67
2022/04/23 11:59:42;;;;;;;7.73;4.60;;;13.70;91.70;;;;;;5056791;28;20451;-67
2022/04/23 12:02:17;;;;;;;10.60;5.57;;;13.70;91.60;;;;;;5053185;28;20869;-67
2022/04/23 12:04:44;;;;;;;9.10;5.80;;;13.60;92.10;;;;;;5048074;28;20830;-68
2022/04/23 12:07:11;;;;;;;16.10;4.73;;;13.80;91.50;;;;;;5051874;28;20504;-68
2022/04/23 12:09:53;;;;;;;10.60;5.57;;;13.70;91.70;;;;;;5056642;28;20432;-67
2022/04/23 12:12:20;;;;;;;10.90;5.40;;;13.60;91.60;;;;;;5055987;28;20412;-67
2022/04/23 12:14:47;;;;;;;11.73;5.10;;;13.60;91.70;;;;;;5056841;28;20428;-67
2022/04/23 12:17:49;;;;;;;11.00;6.00;;;13.60;91.90;;;;;;5054625;28;20602;-67
2022/04/23 12:20:20;;;;;;;9.40;4.43;;;13.60;92.10;;;;;;5046413;28;20424;-67
2022/04/23 12:23:08;;;;;;;11.70;4.87;;;13.60;91.50;;;;;;5049901;28;20483;-67
2022/04/23 12:25:36;;;;;;;12.17;5.13;;;13.60;91.90;;;;;;5046373;28;21141;-66
2022/04/23 12:42:13;;;;;;;10.23;5.40;;;12.60;93.90;;;;;;5049529;28;20458;-67
2022/04/23 12:44:46;;;;;;;9.90;5.30;;;12.80;93.70;;;;;;5046889;28;20844;-67
2022/04/23 12:47:34;;;;;;;10.30;5.57;;;12.90;93.60;;;;;;5047082;28;20467;-70
2022/04/23 12:50:02;;;;;;;7.67;4.13;;;12.90;94.00;;;;;;5039793;28;20471;-67
2022/04/23 12:52:37;;;;;;;9.47;4.67;;;12.90;93.40;;;;;;5053064;28;20423;-67
2022/04/23 12:55:18;;;;;;;11.83;5.33;;;13.00;93.90;;;;;;5049528;28;20430;-67
2022/04/23 12:57:46;;;;;;;11.03;5.17;;;13.00;95.00;;;;;;5047401;28;20597;-67
2022/04/23 13:00:18;;;;;;;10.23;5.67;;;13.10;94.70;;;;;;5053837;28;20447;-67
2022/04/23 13:02:48;;;;;;;11.40;5.80;;;12.90;94.90;;;;;;5059614;28;20423;-67
2022/04/23 13:05:14;;;;;;;10.10;4.80;;;12.90;95.20;;;;;;5046281;28;21145;-68
2022/04/23 13:10:25;;;;;;;14.00;5.57;;;12.80;96.10;;;;;;5043545;28;20479;-69
2022/04/23 13:12:50;;;;;;;9.90;5.20;;;12.80;95.60;;;;;;5054071;28;21016;-68
2022/04/23 13:15:16;;;;;;;10.53;5.03;;;12.60;95.10;;;;;;5051702;28;20723;-70
2022/04/23 13:17:43;;;;;;;8.40;4.27;;;12.80;95.40;;;;;;5056380;28;20209;-70
2022/04/23 13:20:10;;;;;;;10.30;5.23;;;12.90;95.10;;;;;;5055105;28;20878;-70
2022/04/23 13:22:37;;;;;;;6.93;4.93;;;13.10;94.70;;;;;;5053385;28;20507;-70
2022/04/23 13:25:05;;;;;;;9.10;4.70;;;13.20;94.40;;;;;;5051269;28;20428;-69
2022/04/23 13:27:31;;;;;;;9.67;5.60;;;13.40;94.60;;;;;;5057001;28;20437;-70